Dodge, North Dakota
Current Conditions -  °F | °C
As of 12:15 AM on Thursday 18 Dec 2014 (Local Time) from KHZE Reporting Station
Overcast Overcast  
Wind Chill: -15°   Ceiling: 6000
Heat Index: -8°   Visibility: 10mi
Dew Point: -11°   Wind: 10mph
Humidity: 79%   Direction: 160°SSE
Pressure: 30.12"   Gusts: NA
Location:  47.31°N, 102.2°W
Report Text: KHZE 180715Z AUTO 16009KT 10SM BKN060 OVC075 M08/M11 A3012 RMK AO2
Loading
Personal Weather Stations






























Interactive Weather Map New forecast layout! Learn more

10-Day Weather Forecast

Advertisements
Track Severe Weather on mobile